Elizabeth, PA (15037)

1:13 PM EST on February 07, 2016 (GMT -0500)
Jefferson Hills | | Change Station
CLOSE
Current Station
Personal Weather Station
Location: Clairton, PA
Elevation: 919 ft
Nearby Weather Stations

Elev 919 ft 40.29 °N, 79.91 °W | Updated 3 seconds ago

Clear
Clear
49.1 °F
Feels Like 49 °F
N
0.0
Wind Variable Wind from SW
Gusts 0.0 mph

Today
High -- | Low -- °F
--% Chance of Precip.
Yesterday
High -- | Low -- °F
Precip. -- in
Pressure 30.06 in
Visibility 10.0 miles
Clouds Clear
Windchill 49 °F
Dew Point 10 °F
Humidity 20%
Rainfall 0.00 in
Snow Depth Not available.
7:22 AM 5:44 PM
Waning Crescent, 1% visible
METAR KAGC 071753Z 17007KT 10SM CLR 08/M05 A3002 RMK AO2 SLP177 T00831050 10083 21039 58022
Pressure 30.06 in
Visibility 10.0 miles
Clouds Clear
Windchill 49 °F
Dew Point 10 °F
Humidity 20%
Rainfall 0.00 in
Snow Depth Not available.
7:22 AM 5:44 PM
Waning Crescent, 1% visible
METAR KAGC 071753Z 17007KT 10SM CLR 08/M05 A3002 RMK AO2 SLP177 T00831050 10083 21039 58022

10-Day Weather Forecast

Almanac

Astronomy

Feb. 07, 2016 Rise Set
Actual Time
Civil Twilight
Nautical Twilight
Astronomical Twilight
Moon
Length of Visible Light
Length of Day
Tomorrow will be .
, % of the Moon is Illuminated

Today's Extremes

State Highs State Lows

Community

WunderPhotos

Upload Photos

1,891,274 photos uploaded!

WunderBlog® & News

Nearby

Air Quality

  Air Quality AQ Index Pollutant
Not available.

Snow Depth

Station Depth Elevation

Earthquake Activity

City Distance Mag. Time & Date
Minimum magnitude displayed is 2.5.

Coastal Water Temperatures

Place Temperature

Stations

Nearby Weather Stations

Station Location Temp. Windchill Dew Point Humidity Wind Precip. Elev Updated Type
                   

Watches & Warnings

There are currently no watches in effect.